sensor_id;sensor_type;location;lat;lon;timestamp;P1;durP1;ratioP1;P2;durP2;ratioP2
14001;SDS011;7076;51.280;12.584;2023-05-21T00:02:01;17.05;;;12.80;;
14001;SDS011;7076;51.280;12.584;2023-05-21T00:07:04;14.52;;;12.00;;
14001;SDS011;7076;51.280;12.584;2023-05-21T00:12:08;16.38;;;12.93;;
14001;SDS011;7076;51.280;12.584;2023-05-21T00:17:11;15.75;;;12.43;;
14001;SDS011;7076;51.280;12.584;2023-05-21T00:22:14;14.60;;;12.98;;
14001;SDS011;7076;51.280;12.584;2023-05-21T00:27:18;14.52;;;12.10;;
14001;SDS011;7076;51.280;12.584;2023-05-21T00:32:21;16.33;;;13.10;;
14001;SDS011;7076;51.280;12.584;2023-05-21T00:37:24;16.95;;;12.35;;
14001;SDS011;7076;51.280;12.584;2023-05-21T00:42:28;16.60;;;12.68;;
14001;SDS011;7076;51.280;12.584;2023-05-21T00:47:31;16.15;;;13.55;;
14001;SDS011;7076;51.280;12.584;2023-05-21T00:52:33;19.23;;;13.20;;
14001;SDS011;7076;51.280;12.584;2023-05-21T00:57:43;15.88;;;13.45;;
14001;SDS011;7076;51.280;12.584;2023-05-21T01:02:46;17.23;;;12.90;;
14001;SDS011;7076;51.280;12.584;2023-05-21T01:07:50;14.90;;;12.60;;
14001;SDS011;7076;51.280;12.584;2023-05-21T01:12:55;17.55;;;14.65;;
14001;SDS011;7076;51.280;12.584;2023-05-21T01:17:59;16.98;;;13.43;;
14001;SDS011;7076;51.280;12.584;2023-05-21T01:23:03;16.63;;;13.52;;
14001;SDS011;7076;51.280;12.584;2023-05-21T01:28:07;19.40;;;14.50;;
14001;SDS011;7076;51.280;12.584;2023-05-21T01:33:11;16.02;;;14.13;;
14001;SDS011;7076;51.280;12.584;2023-05-21T01:38:18;16.13;;;13.75;;
14001;SDS011;7076;51.280;12.584;2023-05-21T01:43:22;16.25;;;13.60;;
14001;SDS011;7076;51.280;12.584;2023-05-21T01:48:26;20.58;;;14.05;;
14001;SDS011;7076;51.280;12.584;2023-05-21T01:53:30;16.92;;;13.68;;
14001;SDS011;7076;51.280;12.584;2023-05-21T01:58:33;16.90;;;14.32;;
14001;SDS011;7076;51.280;12.584;2023-05-21T02:03:35;17.40;;;14.73;;
14001;SDS011;7076;51.280;12.584;2023-05-21T02:08:40;17.08;;;13.85;;
14001;SDS011;7076;51.280;12.584;2023-05-21T02:13:43;17.40;;;14.38;;
14001;SDS011;7076;51.280;12.584;2023-05-21T02:18:46;19.20;;;14.18;;
14001;SDS011;7076;51.280;12.584;2023-05-21T02:23:53;16.23;;;13.20;;
14001;SDS011;7076;51.280;12.584;2023-05-21T02:28:56;18.48;;;14.68;;
14001;SDS011;7076;51.280;12.584;2023-05-21T02:33:58;18.13;;;14.50;;
14001;SDS011;7076;51.280;12.584;2023-05-21T02:39:03;18.83;;;14.80;;
14001;SDS011;7076;51.280;12.584;2023-05-21T02:44:05;20.90;;;14.25;;
14001;SDS011;7076;51.280;12.584;2023-05-21T02:49:08;17.45;;;14.23;;
14001;SDS011;7076;51.280;12.584;2023-05-21T02:54:13;17.13;;;14.23;;
14001;SDS011;7076;51.280;12.584;2023-05-21T02:59:16;19.55;;;15.40;;
14001;SDS011;7076;51.280;12.584;2023-05-21T03:04:18;21.50;;;14.77;;
14001;SDS011;7076;51.280;12.584;2023-05-21T03:09:23;17.98;;;14.00;;
14001;SDS011;7076;51.280;12.584;2023-05-21T03:14:26;16.45;;;14.10;;
14001;SDS011;7076;51.280;12.584;2023-05-21T03:19:29;20.55;;;14.55;;
14001;SDS011;7076;51.280;12.584;2023-05-21T03:24:36;17.27;;;13.73;;
14001;SDS011;7076;51.280;12.584;2023-05-21T03:29:40;17.05;;;14.75;;
14001;SDS011;7076;51.280;12.584;2023-05-21T03:34:44;18.80;;;14.65;;
14001;SDS011;7076;51.280;12.584;2023-05-21T03:39:50;17.27;;;15.00;;
14001;SDS011;7076;51.280;12.584;2023-05-21T03:44:53;20.02;;;14.93;;
14001;SDS011;7076;51.280;12.584;2023-05-21T03:50:14;17.70;;;14.93;;
14001;SDS011;7076;51.280;12.584;2023-05-21T03:55:18;19.45;;;14.65;;
14001;SDS011;7076;51.280;12.584;2023-05-21T04:00:21;17.40;;;14.20;;
14001;SDS011;7076;51.280;12.584;2023-05-21T04:05:24;18.40;;;14.27;;
14001;SDS011;7076;51.280;12.584;2023-05-21T04:10:28;19.77;;;15.27;;
14001;SDS011;7076;51.280;12.584;2023-05-21T04:15:30;18.48;;;15.82;;
14001;SDS011;7076;51.280;12.584;2023-05-21T04:20:36;18.45;;;16.10;;
14001;SDS011;7076;51.280;12.584;2023-05-21T04:25:40;18.35;;;14.45;;
14001;SDS011;7076;51.280;12.584;2023-05-21T04:30:43;20.83;;;15.68;;
14001;SDS011;7076;51.280;12.584;2023-05-21T04:35:46;20.20;;;15.70;;
14001;SDS011;7076;51.280;12.584;2023-05-21T04:40:52;20.60;;;15.90;;
14001;SDS011;7076;51.280;12.584;2023-05-21T04:45:56;19.13;;;15.50;;
14001;SDS011;7076;51.280;12.584;2023-05-21T04:50:58;17.50;;;14.98;;
14001;SDS011;7076;51.280;12.584;2023-05-21T04:56:02;18.45;;;15.15;;
14001;SDS011;7076;51.280;12.584;2023-05-21T05:01:05;19.30;;;14.98;;
14001;SDS011;7076;51.280;12.584;2023-05-21T05:06:09;18.30;;;15.38;;
14001;SDS011;7076;51.280;12.584;2023-05-21T05:11:13;22.17;;;16.83;;
14001;SDS011;7076;51.280;12.584;2023-05-21T05:16:15;20.05;;;16.05;;
14001;SDS011;7076;51.280;12.584;2023-05-21T05:21:25;23.17;;;16.05;;
14001;SDS011;7076;51.280;12.584;2023-05-21T05:26:29;17.38;;;14.40;;
14001;SDS011;7076;51.280;12.584;2023-05-21T05:31:33;18.25;;;15.60;;
14001;SDS011;7076;51.280;12.584;2023-05-21T05:36:36;21.15;;;16.05;;
14001;SDS011;7076;51.280;12.584;2023-05-21T05:41:40;20.55;;;15.68;;
14001;SDS011;7076;51.280;12.584;2023-05-21T05:46:43;21.85;;;16.15;;
14001;SDS011;7076;51.280;12.584;2023-05-21T05:51:46;18.98;;;16.13;;
14001;SDS011;7076;51.280;12.584;2023-05-21T05:56:50;17.48;;;14.35;;
14001;SDS011;7076;51.280;12.584;2023-05-21T06:01:52;20.27;;;15.35;;
14001;SDS011;7076;51.280;12.584;2023-05-21T06:06:55;20.20;;;15.60;;
14001;SDS011;7076;51.280;12.584;2023-05-21T06:12:00;20.17;;;15.23;;
14001;SDS011;7076;51.280;12.584;2023-05-21T06:17:03;18.90;;;15.35;;
14001;SDS011;7076;51.280;12.584;2023-05-21T06:22:05;20.50;;;15.80;;
14001;SDS011;7076;51.280;12.584;2023-05-21T06:27:10;19.35;;;16.33;;
14001;SDS011;7076;51.280;12.584;2023-05-21T06:32:13;23.40;;;15.88;;
14001;SDS011;7076;51.280;12.584;2023-05-21T06:37:17;17.55;;;14.75;;
14001;SDS011;7076;51.280;12.584;2023-05-21T06:42:22;16.40;;;13.82;;
14001;SDS011;7076;51.280;12.584;2023-05-21T06:47:57;16.42;;;13.95;;
14001;SDS011;7076;51.280;12.584;2023-05-21T06:53:00;17.92;;;15.10;;
14001;SDS011;7076;51.280;12.584;2023-05-21T06:58:04;18.30;;;14.38;;
14001;SDS011;7076;51.280;12.584;2023-05-21T07:03:07;15.38;;;13.40;;
14001;SDS011;7076;51.280;12.584;2023-05-21T07:08:10;19.05;;;14.60;;
14001;SDS011;7076;51.280;12.584;2023-05-21T07:13:15;15.50;;;13.00;;
14001;SDS011;7076;51.280;12.584;2023-05-21T07:18:18;18.85;;;16.58;;
14001;SDS011;7076;51.280;12.584;2023-05-21T07:23:21;17.40;;;13.48;;
14001;SDS011;7076;51.280;12.584;2023-05-21T07:28:25;16.98;;;14.48;;
14001;SDS011;7076;51.280;12.584;2023-05-21T07:33:28;17.35;;;14.13;;
14001;SDS011;7076;51.280;12.584;2023-05-21T07:38:31;15.85;;;13.20;;
14001;SDS011;7076;51.280;12.584;2023-05-21T07:43:35;14.48;;;12.90;;
14001;SDS011;7076;51.280;12.584;2023-05-21T07:48:38;16.27;;;13.68;;
14001;SDS011;7076;51.280;12.584;2023-05-21T07:53:42;16.27;;;13.30;;
14001;SDS011;7076;51.280;12.584;2023-05-21T07:58:48;16.50;;;13.88;;
14001;SDS011;7076;51.280;12.584;2023-05-21T08:03:51;18.50;;;14.07;;
14001;SDS011;7076;51.280;12.584;2023-05-21T08:08:54;15.30;;;13.60;;
14001;SDS011;7076;51.280;12.584;2023-05-21T08:13:59;15.32;;;13.65;;
14001;SDS011;7076;51.280;12.584;2023-05-21T08:19:01;14.73;;;13.23;;
14001;SDS011;7076;51.280;12.584;2023-05-21T08:24:05;17.08;;;13.40;;
14001;SDS011;7076;51.280;12.584;2023-05-21T08:29:10;15.68;;;13.30;;
14001;SDS011;7076;51.280;12.584;2023-05-21T08:34:12;13.98;;;12.48;;
14001;SDS011;7076;51.280;12.584;2023-05-21T08:39:21;15.45;;;12.63;;
14001;SDS011;7076;51.280;12.584;2023-05-21T08:44:25;14.77;;;12.77;;
14001;SDS011;7076;51.280;12.584;2023-05-21T08:49:29;16.23;;;12.95;;
14001;SDS011;7076;51.280;12.584;2023-05-21T08:54:34;14.98;;;13.20;;
14001;SDS011;7076;51.280;12.584;2023-05-21T09:03:27;14.07;;;12.30;;
14001;SDS011;7076;51.280;12.584;2023-05-21T09:08:33;14.68;;;12.75;;
14001;SDS011;7076;51.280;12.584;2023-05-21T09:13:40;15.15;;;11.70;;
14001;SDS011;7076;51.280;12.584;2023-05-21T09:18:53;13.65;;;12.05;;
14001;SDS011;7076;51.280;12.584;2023-05-21T09:24:00;13.77;;;12.13;;
14001;SDS011;7076;51.280;12.584;2023-05-21T09:29:03;13.10;;;11.52;;
14001;SDS011;7076;51.280;12.584;2023-05-21T09:34:07;12.80;;;11.48;;
14001;SDS011;7076;51.280;12.584;2023-05-21T09:39:10;13.48;;;11.38;;
14001;SDS011;7076;51.280;12.584;2023-05-21T09:44:17;12.00;;;10.48;;
14001;SDS011;7076;51.280;12.584;2023-05-21T09:49:24;13.18;;;11.13;;
14001;SDS011;7076;51.280;12.584;2023-05-21T09:57:02;11.50;;;10.30;;
14001;SDS011;7076;51.280;12.584;2023-05-21T10:02:14;12.98;;;10.25;;
14001;SDS011;7076;51.280;12.584;2023-05-21T10:07:17;14.68;;;10.32;;
14001;SDS011;7076;51.280;12.584;2023-05-21T10:12:23;12.77;;;9.60;;
14001;SDS011;7076;51.280;12.584;2023-05-21T10:17:26;12.60;;;9.15;;
14001;SDS011;7076;51.280;12.584;2023-05-21T10:22:29;10.63;;;9.10;;
14001;SDS011;7076;51.280;12.584;2023-05-21T10:27:33;10.70;;;9.35;;
14001;SDS011;7076;51.280;12.584;2023-05-21T10:32:36;11.13;;;8.63;;
14001;SDS011;7076;51.280;12.584;2023-05-21T10:37:41;11.32;;;8.82;;
14001;SDS011;7076;51.280;12.584;2023-05-21T10:42:59;10.25;;;8.55;;
14001;SDS011;7076;51.280;12.584;2023-05-21T10:48:07;10.30;;;9.27;;
14001;SDS011;7076;51.280;12.584;2023-05-21T10:53:15;9.05;;;8.20;;
14001;SDS011;7076;51.280;12.584;2023-05-21T10:58:45;9.43;;;8.32;;
14001;SDS011;7076;51.280;12.584;2023-05-21T11:03:49;9.80;;;8.80;;
14001;SDS011;7076;51.280;12.584;2023-05-21T11:08:52;9.85;;;8.48;;
14001;SDS011;7076;51.280;12.584;2023-05-21T11:13:57;10.88;;;8.18;;
14001;SDS011;7076;51.280;12.584;2023-05-21T11:19:01;8.43;;;7.72;;
14001;SDS011;7076;51.280;12.584;2023-05-21T11:24:04;9.77;;;8.38;;
14001;SDS011;7076;51.280;12.584;2023-05-21T11:29:10;10.13;;;8.50;;
14001;SDS011;7076;51.280;12.584;2023-05-21T11:34:13;9.32;;;7.75;;
14001;SDS011;7076;51.280;12.584;2023-05-21T11:39:16;9.40;;;8.48;;
14001;SDS011;7076;51.280;12.584;2023-05-21T11:49:42;10.52;;;8.38;;
14001;SDS011;7076;51.280;12.584;2023-05-21T11:54:45;11.73;;;7.65;;
14001;SDS011;7076;51.280;12.584;2023-05-21T12:02:49;9.55;;;7.95;;
14001;SDS011;7076;51.280;12.584;2023-05-21T12:07:52;7.90;;;7.05;;
14001;SDS011;7076;51.280;12.584;2023-05-21T12:12:56;10.38;;;7.88;;
14001;SDS011;7076;51.280;12.584;2023-05-21T12:18:01;8.98;;;7.72;;
14001;SDS011;7076;51.280;12.584;2023-05-21T13:03:37;12.40;;;8.07;;
14001;SDS011;7076;51.280;12.584;2023-05-21T13:11:08;9.00;;;7.80;;
14001;SDS011;7076;51.280;12.584;2023-05-21T13:16:11;11.65;;;8.18;;
14001;SDS011;7076;51.280;12.584;2023-05-21T13:21:14;9.02;;;7.60;;
14001;SDS011;7076;51.280;12.584;2023-05-21T13:26:18;12.52;;;8.00;;
14001;SDS011;7076;51.280;12.584;2023-05-21T13:31:21;10.98;;;7.50;;
14001;SDS011;7076;51.280;12.584;2023-05-21T13:36:24;10.27;;;7.50;;
14001;SDS011;7076;51.280;12.584;2023-05-21T13:41:28;10.75;;;7.28;;
14001;SDS011;7076;51.280;12.584;2023-05-21T13:46:31;8.32;;;7.35;;
14001;SDS011;7076;51.280;12.584;2023-05-21T13:51:39;10.70;;;7.30;;
14001;SDS011;7076;51.280;12.584;2023-05-21T13:56:44;8.38;;;7.18;;
14001;SDS011;7076;51.280;12.584;2023-05-21T14:01:47;8.68;;;7.50;;
14001;SDS011;7076;51.280;12.584;2023-05-21T14:06:50;10.52;;;6.47;;
14001;SDS011;7076;51.280;12.584;2023-05-21T14:11:55;8.05;;;5.97;;
14001;SDS011;7076;51.280;12.584;2023-05-21T14:16:59;7.40;;;5.93;;
14001;SDS011;7076;51.280;12.584;2023-05-21T14:22:02;7.70;;;6.88;;
14001;SDS011;7076;51.280;12.584;2023-05-21T14:27:06;10.75;;;6.95;;
14001;SDS011;7076;51.280;12.584;2023-05-21T14:32:11;8.57;;;6.05;;
14001;SDS011;7076;51.280;12.584;2023-05-21T14:37:18;7.57;;;6.60;;
14001;SDS011;7076;51.280;12.584;2023-05-21T14:42:23;7.88;;;6.25;;
14001;SDS011;7076;51.280;12.584;2023-05-21T14:47:25;6.10;;;5.50;;
14001;SDS011;7076;51.280;12.584;2023-05-21T14:52:29;7.10;;;5.90;;
14001;SDS011;7076;51.280;12.584;2023-05-21T14:57:33;6.40;;;5.60;;
14001;SDS011;7076;51.280;12.584;2023-05-21T15:02:36;6.03;;;5.38;;
14001;SDS011;7076;51.280;12.584;2023-05-21T15:07:39;8.23;;;5.57;;
14001;SDS011;7076;51.280;12.584;2023-05-21T15:12:43;7.95;;;5.20;;
14001;SDS011;7076;51.280;12.584;2023-05-21T15:17:46;6.22;;;5.15;;
14001;SDS011;7076;51.280;12.584;2023-05-21T15:22:50;6.82;;;5.45;;
14001;SDS011;7076;51.280;12.584;2023-05-21T15:28:06;6.57;;;5.80;;
14001;SDS011;7076;51.280;12.584;2023-05-21T15:33:09;10.57;;;6.43;;
14001;SDS011;7076;51.280;12.584;2023-05-21T15:38:12;8.35;;;6.07;;
14001;SDS011;7076;51.280;12.584;2023-05-21T15:43:17;7.10;;;6.03;;
14001;SDS011;7076;51.280;12.584;2023-05-21T15:48:20;6.53;;;5.93;;
14001;SDS011;7076;51.280;12.584;2023-05-21T15:53:23;8.85;;;6.50;;
14001;SDS011;7076;51.280;12.584;2023-05-21T15:58:27;7.47;;;6.20;;
14001;SDS011;7076;51.280;12.584;2023-05-21T16:03:31;8.18;;;6.90;;
14001;SDS011;7076;51.280;12.584;2023-05-21T16:08:34;8.85;;;6.43;;
14001;SDS011;7076;51.280;12.584;2023-05-21T16:13:38;7.72;;;6.47;;
14001;SDS011;7076;51.280;12.584;2023-05-21T16:18:41;8.98;;;7.70;;
14001;SDS011;7076;51.280;12.584;2023-05-21T16:23:44;8.75;;;7.03;;
14001;SDS011;7076;51.280;12.584;2023-05-21T16:28:48;8.20;;;7.32;;
14001;SDS011;7076;51.280;12.584;2023-05-21T16:33:51;6.28;;;5.50;;
14001;SDS011;7076;51.280;12.584;2023-05-21T16:38:54;6.53;;;5.07;;
14001;SDS011;7076;51.280;12.584;2023-05-21T16:43:58;9.80;;;4.90;;
14001;SDS011;7076;51.280;12.584;2023-05-21T16:49:01;6.22;;;5.03;;
14001;SDS011;7076;51.280;12.584;2023-05-21T16:54:04;8.00;;;5.15;;
14001;SDS011;7076;51.280;12.584;2023-05-21T16:59:08;7.32;;;4.90;;
14001;SDS011;7076;51.280;12.584;2023-05-21T17:04:11;6.30;;;4.93;;
14001;SDS011;7076;51.280;12.584;2023-05-21T17:09:14;6.35;;;4.80;;
14001;SDS011;7076;51.280;12.584;2023-05-21T17:14:20;7.10;;;4.70;;
14001;SDS011;7076;51.280;12.584;2023-05-21T17:19:34;5.50;;;4.70;;
14001;SDS011;7076;51.280;12.584;2023-05-21T17:24:37;7.40;;;4.97;;
14001;SDS011;7076;51.280;12.584;2023-05-21T17:29:42;6.68;;;5.35;;
14001;SDS011;7076;51.280;12.584;2023-05-21T17:34:45;10.35;;;6.20;;
14001;SDS011;7076;51.280;12.584;2023-05-21T17:39:47;7.65;;;5.25;;
14001;SDS011;7076;51.280;12.584;2023-05-21T17:44:52;6.32;;;5.70;;
14001;SDS011;7076;51.280;12.584;2023-05-21T17:49:55;7.20;;;6.07;;
14001;SDS011;7076;51.280;12.584;2023-05-21T17:54:57;7.90;;;5.43;;
14001;SDS011;7076;51.280;12.584;2023-05-21T18:00:03;7.20;;;6.18;;
14001;SDS011;7076;51.280;12.584;2023-05-21T18:05:16;6.43;;;5.72;;
14001;SDS011;7076;51.280;12.584;2023-05-21T18:10:19;6.38;;;5.70;;
14001;SDS011;7076;51.280;12.584;2023-05-21T18:15:23;6.88;;;5.20;;
14001;SDS011;7076;51.280;12.584;2023-05-21T18:20:26;7.18;;;5.68;;
14001;SDS011;7076;51.280;12.584;2023-05-21T18:25:30;7.65;;;5.47;;
14001;SDS011;7076;51.280;12.584;2023-05-21T18:30:34;7.20;;;5.93;;
14001;SDS011;7076;51.280;12.584;2023-05-21T18:35:39;8.55;;;6.38;;
14001;SDS011;7076;51.280;12.584;2023-05-21T18:40:42;6.18;;;5.57;;
14001;SDS011;7076;51.280;12.584;2023-05-21T18:45:47;7.57;;;5.80;;
14001;SDS011;7076;51.280;12.584;2023-05-21T18:50:50;6.32;;;5.72;;
14001;SDS011;7076;51.280;12.584;2023-05-21T18:55:53;7.32;;;5.40;;
14001;SDS011;7076;51.280;12.584;2023-05-21T19:00:57;7.93;;;6.07;;
14001;SDS011;7076;51.280;12.584;2023-05-21T19:06:00;6.88;;;5.70;;
14001;SDS011;7076;51.280;12.584;2023-05-21T19:11:03;6.95;;;5.55;;
14001;SDS011;7076;51.280;12.584;2023-05-21T19:16:09;6.53;;;5.93;;
14001;SDS011;7076;51.280;12.584;2023-05-21T19:21:12;8.68;;;5.55;;
14001;SDS011;7076;51.280;12.584;2023-05-21T19:26:15;6.65;;;5.97;;
14001;SDS011;7076;51.280;12.584;2023-05-21T19:31:19;8.43;;;6.38;;
14001;SDS011;7076;51.280;12.584;2023-05-21T19:36:22;5.95;;;5.35;;
14001;SDS011;7076;51.280;12.584;2023-05-21T19:41:25;6.95;;;6.25;;
14001;SDS011;7076;51.280;12.584;2023-05-21T19:46:30;7.43;;;5.32;;
14001;SDS011;7076;51.280;12.584;2023-05-21T19:51:33;9.32;;;5.13;;
14001;SDS011;7076;51.280;12.584;2023-05-21T19:56:36;7.25;;;5.25;;
14001;SDS011;7076;51.280;12.584;2023-05-21T20:01:40;5.85;;;5.35;;
14001;SDS011;7076;51.280;12.584;2023-05-21T20:06:44;6.35;;;5.75;;
14001;SDS011;7076;51.280;12.584;2023-05-21T20:11:47;6.78;;;5.63;;
14001;SDS011;7076;51.280;12.584;2023-05-21T20:16:51;6.15;;;5.22;;
14001;SDS011;7076;51.280;12.584;2023-05-21T20:21:54;6.15;;;5.55;;
14001;SDS011;7076;51.280;12.584;2023-05-21T20:26:58;6.80;;;5.65;;
14001;SDS011;7076;51.280;12.584;2023-05-21T20:32:03;7.15;;;5.78;;
14001;SDS011;7076;51.280;12.584;2023-05-21T20:37:07;6.38;;;5.70;;
14001;SDS011;7076;51.280;12.584;2023-05-21T20:42:10;9.68;;;6.53;;
14001;SDS011;7076;51.280;12.584;2023-05-21T20:47:16;8.40;;;6.25;;
14001;SDS011;7076;51.280;12.584;2023-05-21T20:52:20;7.95;;;6.22;;
14001;SDS011;7076;51.280;12.584;2023-05-21T20:57:24;7.85;;;6.40;;
14001;SDS011;7076;51.280;12.584;2023-05-21T21:02:29;9.00;;;6.28;;
14001;SDS011;7076;51.280;12.584;2023-05-21T21:07:33;6.93;;;5.57;;
14001;SDS011;7076;51.280;12.584;2023-05-21T21:12:37;6.75;;;5.82;;
14001;SDS011;7076;51.280;12.584;2023-05-21T21:17:41;9.43;;;5.95;;
14001;SDS011;7076;51.280;12.584;2023-05-21T21:22:44;6.53;;;5.93;;
14001;SDS011;7076;51.280;12.584;2023-05-21T21:27:47;10.32;;;6.55;;
14001;SDS011;7076;51.280;12.584;2023-05-21T21:32:51;6.82;;;5.53;;
14001;SDS011;7076;51.280;12.584;2023-05-21T21:37:55;7.00;;;6.30;;
14001;SDS011;7076;51.280;12.584;2023-05-21T21:42:57;9.27;;;6.28;;
14001;SDS011;7076;51.280;12.584;2023-05-21T21:48:02;6.55;;;5.70;;
14001;SDS011;7076;51.280;12.584;2023-05-21T21:53:05;8.57;;;5.97;;
14001;SDS011;7076;51.280;12.584;2023-05-21T21:58:07;7.50;;;5.97;;
14001;SDS011;7076;51.280;12.584;2023-05-21T22:03:12;7.38;;;6.07;;
14001;SDS011;7076;51.280;12.584;2023-05-21T22:08:15;6.30;;;5.70;;
14001;SDS011;7076;51.280;12.584;2023-05-21T22:13:18;7.93;;;6.22;;
14001;SDS011;7076;51.280;12.584;2023-05-21T22:18:22;6.60;;;5.63;;
14001;SDS011;7076;51.280;12.584;2023-05-21T22:23:40;7.88;;;6.13;;
14001;SDS011;7076;51.280;12.584;2023-05-21T22:28:43;8.13;;;5.95;;
14001;SDS011;7076;51.280;12.584;2023-05-21T22:33:47;8.27;;;6.28;;
14001;SDS011;7076;51.280;12.584;2023-05-21T22:38:50;6.25;;;5.65;;
14001;SDS011;7076;51.280;12.584;2023-05-21T22:43:53;6.70;;;6.00;;
14001;SDS011;7076;51.280;12.584;2023-05-21T22:48:57;6.55;;;5.65;;
14001;SDS011;7076;51.280;12.584;2023-05-21T22:54:01;7.78;;;5.28;;
14001;SDS011;7076;51.280;12.584;2023-05-21T22:59:03;7.45;;;5.90;;
14001;SDS011;7076;51.280;12.584;2023-05-21T23:04:07;9.48;;;5.43;;
14001;SDS011;7076;51.280;12.584;2023-05-21T23:09:10;6.40;;;5.80;;
14001;SDS011;7076;51.280;12.584;2023-05-21T23:14:14;6.65;;;5.80;;
14001;SDS011;7076;51.280;12.584;2023-05-21T23:19:18;6.13;;;5.53;;
14001;SDS011;7076;51.280;12.584;2023-05-21T23:24:21;7.57;;;6.05;;
14001;SDS011;7076;51.280;12.584;2023-05-21T23:29:24;8.82;;;6.15;;
14001;SDS011;7076;51.280;12.584;2023-05-21T23:34:28;8.25;;;6.13;;
14001;SDS011;7076;51.280;12.584;2023-05-21T23:39:31;8.25;;;6.13;;
14001;SDS011;7076;51.280;12.584;2023-05-21T23:44:34;7.43;;;6.35;;
14001;SDS011;7076;51.280;12.584;2023-05-21T23:49:38;6.45;;;5.68;;
14001;SDS011;7076;51.280;12.584;2023-05-21T23:54:41;6.63;;;6.03;;
14001;SDS011;7076;51.280;12.584;2023-05-21T23:59:44;6.70;;;5.97;;
